Time;durP1;ratioP1;P1;durP2;ratioP2;P2;SDS_P1;SDS_P2;PMS_P1;PMS_P2;Temp;Humidity;BMP_temperature;BMP_pressure;BME280_temperature;BME280_humidity;BME280_pressure;Samples;Min_cycle;Max_cycle;Signal;HPM_P1;HPM_P2
2023/04/18 00:01:45;;;;;;;17.33;13.18;;;;;;;;;;5050887;28;20067;-68
2023/04/18 00:04:12;;;;;;;20.08;13.60;;;;;;;;;;5046956;28;20503;-68
2023/04/18 00:06:37;;;;;;;17.13;13.25;;;;;;;;;;5044861;28;20039;-68
2023/04/18 00:09:03;;;;;;;19.27;13.13;;;;;;;;;;5048087;28;20048;-68
2023/04/18 00:11:29;;;;;;;17.50;13.05;;;;;;;;;;5048204;28;20123;-68
2023/04/18 00:13:56;;;;;;;16.98;13.15;;;;;;;;;;5044573;28;20143;-68
2023/04/18 00:16:22;;;;;;;17.85;13.27;;;;;;;;;;5044853;28;20041;-67
2023/04/18 00:18:48;;;;;;;17.30;12.32;;;;;;;;;;5046284;28;20040;-68
2023/04/18 00:21:16;;;;;;;18.38;12.55;;;;;;;;;;5046604;28;20037;-68
2023/04/18 00:23:42;;;;;;;16.83;12.50;;;;;;;;;;5046358;28;20037;-68
2023/04/18 00:26:07;;;;;;;19.52;13.10;;;;;;;;;;5041539;28;20029;-68
2023/04/18 00:28:33;;;;;;;16.95;12.25;;;;;;;;;;5051298;28;20032;-68
2023/04/18 00:30:59;;;;;;;17.02;12.63;;;;;;;;;;5055304;28;20033;-68
2023/04/18 00:33:24;;;;;;;14.93;11.90;;;;;;;;;;5043286;28;20064;-68
2023/04/18 00:35:51;;;;;;;18.45;12.15;;;;;;;;;;5047144;28;20033;-67
2023/04/18 00:38:16;;;;;;;15.50;12.48;;;;;;;;;;5030091;28;20043;-67
2023/04/18 00:40:42;;;;;;;14.38;11.32;;;;;;;;;;5046359;28;20119;-68
2023/04/18 00:43:08;;;;;;;17.83;11.70;;;;;;;;;;5045342;28;20048;-68
2023/04/18 00:45:34;;;;;;;18.35;13.50;;;;;;;;;;5030425;28;20389;-68
2023/04/18 00:48:00;;;;;;;17.10;13.18;;;;;;;;;;5031352;28;20041;-68
2023/04/18 00:50:26;;;;;;;19.85;12.15;;;;;;;;;;5045730;28;20063;-68
2023/04/18 00:52:52;;;;;;;15.45;12.85;;;;;;;;;;5047366;28;20033;-67
2023/04/18 00:55:19;;;;;;;15.77;11.27;;;;;;;;;;5027715;28;20041;-67
2023/04/18 00:57:45;;;;;;;16.23;11.85;;;;;;;;;;5028583;28;20103;-67
2023/04/18 01:00:11;;;;;;;17.95;12.70;;;;;;;;;;5042808;28;20037;-67
2023/04/18 01:02:39;;;;;;;16.60;12.15;;;;;;;;;;5046776;28;20040;-67
2023/04/18 01:05:06;;;;;;;16.98;12.18;;;;;;;;;;5035761;28;20062;-67
2023/04/18 01:07:34;;;;;;;14.85;11.52;;;;;;;;;;5046233;28;20087;-68
2023/04/18 01:10:01;;;;;;;16.25;11.80;;;;;;;;;;5025436;28;20082;-68
2023/04/18 01:12:26;;;;;;;16.40;11.80;;;;;;;;;;5030801;28;20524;-68
2023/04/18 01:14:53;;;;;;;15.98;11.85;;;;;;;;;;5030876;28;20103;-67
2023/04/18 01:17:19;;;;;;;19.25;12.98;;;;;;;;;;5028122;28;20041;-68
2023/04/18 01:19:47;;;;;;;20.52;13.50;;;;;;;;;;5045185;28;20051;-68
2023/04/18 01:22:13;;;;;;;17.23;12.45;;;;;;;;;;5048274;28;20513;-68
2023/04/18 01:24:40;;;;;;;20.58;13.50;;;;;;;;;;5045709;28;20041;-68
2023/04/18 01:27:12;;;;;;;19.23;13.05;;;;;;;;;;5006939;28;20041;-68
2023/04/18 01:29:38;;;;;;;18.55;13.40;;;;;;;;;;5006056;28;20026;-67
2023/04/18 01:32:04;;;;;;;13.98;11.10;;;;;;;;;;5048994;28;20063;-69
2023/04/18 01:34:30;;;;;;;18.23;11.32;;;;;;;;;;5031153;28;20041;-68
2023/04/18 01:36:55;;;;;;;19.80;13.30;;;;;;;;;;5050135;28;20108;-67
2023/04/18 01:39:21;;;;;;;15.65;11.98;;;;;;;;;;5051051;28;20043;-67
2023/04/18 01:41:47;;;;;;;19.08;12.27;;;;;;;;;;5049244;28;20575;-67
2023/04/18 01:44:12;;;;;;;18.50;12.07;;;;;;;;;;5047198;28;20124;-67
2023/04/18 01:46:39;;;;;;;15.70;12.10;;;;;;;;;;5047813;28;20087;-67
2023/04/18 01:49:05;;;;;;;15.73;12.15;;;;;;;;;;5049065;28;20041;-67
2023/04/18 01:51:31;;;;;;;16.27;11.60;;;;;;;;;;5049627;28;20133;-68
2023/04/18 01:53:57;;;;;;;18.75;11.35;;;;;;;;;;5029441;28;20607;-67
2023/04/18 01:56:23;;;;;;;15.13;12.00;;;;;;;;;;5032937;28;20616;-67
2023/04/18 01:58:49;;;;;;;15.75;11.52;;;;;;;;;;5033375;28;20040;-68
2023/04/18 02:01:15;;;;;;;15.27;11.10;;;;;;;;;;5059806;28;20538;-68
2023/04/18 02:03:40;;;;;;;15.18;11.82;;;;;;;;;;5046123;28;20025;-68
2023/04/18 02:06:06;;;;;;;16.52;11.45;;;;;;;;;;5032518;28;20041;-68
2023/04/18 02:08:34;;;;;;;16.15;11.98;;;;;;;;;;5033016;28;20033;-68
2023/04/18 02:11:04;;;;;;;14.95;11.48;;;;;;;;;;5048158;28;20033;-68
2023/04/18 02:13:30;;;;;;;14.60;11.60;;;;;;;;;;5050145;28;20029;-68
2023/04/18 02:15:56;;;;;;;14.43;11.80;;;;;;;;;;5028652;28;20480;-68
2023/04/18 02:18:23;;;;;;;14.88;11.80;;;;;;;;;;5048738;28;20036;-68
2023/04/18 02:20:50;;;;;;;17.33;11.57;;;;;;;;;;5031857;28;20069;-67
2023/04/18 02:23:16;;;;;;;16.38;11.43;;;;;;;;;;5048799;28;20060;-68
2023/04/18 02:25:42;;;;;;;15.93;11.30;;;;;;;;;;5054377;28;20460;-68
2023/04/18 02:28:08;;;;;;;17.30;12.23;;;;;;;;;;5048516;28;20500;-68
2023/04/18 02:30:34;;;;;;;16.33;12.77;;;;;;;;;;5051055;28;20043;-68
2023/04/18 02:33:01;;;;;;;15.38;12.07;;;;;;;;;;5048910;28;20387;-68
2023/04/18 02:35:26;;;;;;;17.42;13.55;;;;;;;;;;5027158;28;20033;-67
2023/04/18 02:37:52;;;;;;;15.07;11.93;;;;;;;;;;5028233;28;20028;-68
2023/04/18 02:40:18;;;;;;;14.48;11.63;;;;;;;;;;5041425;28;20088;-67
2023/04/18 02:42:44;;;;;;;14.20;11.27;;;;;;;;;;5028732;28;20045;-68
2023/04/18 02:45:13;;;;;;;17.20;12.02;;;;;;;;;;5026361;28;20065;-68
2023/04/18 02:47:41;;;;;;;18.75;12.63;;;;;;;;;;5029710;28;20071;-68
2023/04/18 02:50:07;;;;;;;13.45;10.90;;;;;;;;;;5028019;28;20033;-68
2023/04/18 02:52:34;;;;;;;13.73;10.75;;;;;;;;;;5044761;28;20115;-67
2023/04/18 02:55:00;;;;;;;13.95;10.85;;;;;;;;;;5030130;28;20121;-67
2023/04/18 02:57:30;;;;;;;14.80;11.65;;;;;;;;;;5030036;28;20044;-68
2023/04/18 03:00:18;;;;;;;14.15;11.15;;;;;;;;;;5047623;28;20040;-68
2023/04/18 03:02:53;;;;;;;14.25;11.00;;;;;;;;;;5046008;28;20120;-68
2023/04/18 03:05:32;;;;;;;16.23;11.20;;;;;;;;;;5027335;28;20104;-68
2023/04/18 03:08:01;;;;;;;20.10;10.77;;;;;;;;;;5032245;28;20041;-68
2023/04/18 03:10:27;;;;;;;13.85;10.52;;;;;;;;;;5051244;28;20031;-68
2023/04/18 03:12:52;;;;;;;14.73;10.80;;;;;;;;;;5019509;28;20116;-68
2023/04/18 03:15:19;;;;;;;15.88;10.07;;;;;;;;;;5047728;28;20040;-68
2023/04/18 03:17:45;;;;;;;13.63;10.73;;;;;;;;;;5031520;28;20028;-68
2023/04/18 03:20:12;;;;;;;13.45;11.07;;;;;;;;;;5031922;28;20029;-68
2023/04/18 03:22:38;;;;;;;12.80;9.98;;;;;;;;;;5028112;28;20538;-68
2023/04/18 03:25:05;;;;;;;14.07;11.43;;;;;;;;;;5029236;28;20072;-68
2023/04/18 03:27:42;;;;;;;16.40;10.88;;;;;;;;;;5031452;28;20068;-68
2023/04/18 03:30:09;;;;;;;13.48;10.02;;;;;;;;;;5039525;28;20029;-67
2023/04/18 03:32:37;;;;;;;14.82;11.02;;;;;;;;;;5031732;28;20029;-68
2023/04/18 03:35:03;;;;;;;17.05;11.43;;;;;;;;;;5035361;28;20044;-68
2023/04/18 03:37:29;;;;;;;15.63;11.40;;;;;;;;;;5012782;28;20029;-68
2023/04/18 03:39:56;;;;;;;13.43;9.95;;;;;;;;;;5019112;28;20059;-68
2023/04/18 03:42:25;;;;;;;;;;;;;;;;;;5030910;28;20504;-68
2023/04/18 03:44:50;;;;;;;15.73;10.73;;;;;;;;;;5050164;28;19917;-68
2023/04/18 03:47:16;;;;;;;15.60;10.50;;;;;;;;;;5032087;28;20067;-68
2023/04/18 03:49:46;;;;;;;15.45;10.88;;;;;;;;;;5033017;28;20044;-68
2023/04/18 03:52:12;;;;;;;16.55;11.13;;;;;;;;;;5032298;28;20108;-68
2023/04/18 03:54:41;;;;;;;17.15;11.57;;;;;;;;;;5051137;28;20057;-68
2023/04/18 03:57:08;;;;;;;14.18;11.70;;;;;;;;;;5027680;28;20615;-68
2023/04/18 03:59:36;;;;;;;17.98;12.38;;;;;;;;;;5031927;28;20043;-68
2023/04/18 04:02:01;;;;;;;15.43;11.68;;;;;;;;;;5031094;28;20041;-68
2023/04/18 04:04:27;;;;;;;17.40;12.07;;;;;;;;;;5029706;28;20081;-68
2023/04/18 04:06:55;;;;;;;15.23;11.88;;;;;;;;;;5023493;28;20025;-68
2023/04/18 04:09:20;;;;;;;16.50;11.35;;;;;;;;;;5030269;28;20102;-68
2023/04/18 04:11:46;;;;;;;15.25;11.32;;;;;;;;;;5043390;28;20064;-68
2023/04/18 04:14:13;;;;;;;16.48;11.20;;;;;;;;;;5027773;28;20067;-67
2023/04/18 04:16:43;;;;;;;;;;;;;;;;;;5030133;28;20029;-68
2023/04/18 04:19:10;;;;;;;19.38;11.77;;;;;;;;;;5030665;28;19916;-65
2023/04/18 04:21:42;;;;;;;15.50;11.82;;;;;;;;;;5027044;28;20034;-68
2023/04/18 04:24:12;;;;;;;16.00;10.65;;;;;;;;;;5029728;28;20036;-68
2023/04/18 04:26:43;;;;;;;13.85;11.07;;;;;;;;;;5050407;28;20045;-68
2023/04/18 04:29:13;;;;;;;15.73;11.68;;;;;;;;;;5028379;28;20147;-68
2023/04/18 04:31:41;;;;;;;16.07;11.47;;;;;;;;;;5045870;28;20032;-68
2023/04/18 04:34:07;;;;;;;15.52;11.98;;;;;;;;;;5046658;28;20043;-68
2023/04/18 04:36:33;;;;;;;16.23;12.10;;;;;;;;;;5024902;28;20041;-68
2023/04/18 04:39:04;;;;;;;46.45;23.17;;;;;;;;;;5028494;28;20044;-68
2023/04/18 04:41:39;;;;;;;35.60;19.83;;;;;;;;;;5021777;28;20477;-68
2023/04/18 04:44:06;;;;;;;22.13;15.95;;;;;;;;;;5027391;28;20040;-68
2023/04/18 04:46:38;;;;;;;18.60;13.02;;;;;;;;;;5055859;28;20045;-67
2023/04/18 04:49:09;;;;;;;17.02;12.57;;;;;;;;;;5028479;28;20037;-68
2023/04/18 04:51:35;;;;;;;15.63;11.68;;;;;;;;;;5043393;28;20029;-68
2023/04/18 04:54:00;;;;;;;17.40;12.50;;;;;;;;;;5032420;28;20033;-68
2023/04/18 04:56:26;;;;;;;18.33;12.70;;;;;;;;;;5028520;28;20033;-67
2023/04/18 04:58:52;;;;;;;15.88;12.07;;;;;;;;;;5031404;28;20075;-67
2023/04/18 05:01:23;;;;;;;15.70;11.68;;;;;;;;;;5031296;28;20497;-67
2023/04/18 05:03:51;;;;;;;14.43;11.38;;;;;;;;;;5029874;28;20084;-68
2023/04/18 05:06:19;;;;;;;14.80;11.73;;;;;;;;;;5044637;28;20045;-68
2023/04/18 05:08:49;;;;;;;14.32;11.77;;;;;;;;;;5049000;28;20033;-68
2023/04/18 05:11:15;;;;;;;15.55;12.13;;;;;;;;;;5032690;28;20600;-67
2023/04/18 05:13:41;;;;;;;17.60;12.23;;;;;;;;;;5049888;28;20501;-67
2023/04/18 05:16:06;;;;;;;19.85;11.95;;;;;;;;;;5049960;28;20037;-68
2023/04/18 05:18:32;;;;;;;15.68;11.38;;;;;;;;;;5050113;28;20540;-67
2023/04/18 05:20:58;;;;;;;18.52;13.05;;;;;;;;;;5050502;28;20029;-67
2023/04/18 05:23:24;;;;;;;17.95;13.13;;;;;;;;;;5048157;28;20032;-68
2023/04/18 05:25:49;;;;;;;16.65;12.55;;;;;;;;;;5046563;28;20033;-68
2023/04/18 05:28:15;;;;;;;18.10;12.13;;;;;;;;;;5050526;28;20100;-68
2023/04/18 05:30:41;;;;;;;16.40;12.48;;;;;;;;;;5047441;28;20032;-67
2023/04/18 05:33:06;;;;;;;20.10;12.48;;;;;;;;;;5045006;28;20036;-68
2023/04/18 05:35:32;;;;;;;17.63;12.45;;;;;;;;;;5045870;28;20037;-66
2023/04/18 05:37:58;;;;;;;13.60;11.15;;;;;;;;;;5052016;28;20033;-67
2023/04/18 05:40:26;;;;;;;16.50;12.65;;;;;;;;;;5048673;28;20029;-67
2023/04/18 05:42:51;;;;;;;17.52;11.95;;;;;;;;;;5045104;28;20038;-67
2023/04/18 05:45:17;;;;;;;18.42;12.60;;;;;;;;;;5049094;28;20493;-67
2023/04/18 05:47:42;;;;;;;17.67;12.77;;;;;;;;;;5050903;28;20040;-67
2023/04/18 05:50:08;;;;;;;17.85;12.95;;;;;;;;;;5051516;28;20503;-67
2023/04/18 05:52:35;;;;;;;16.40;11.88;;;;;;;;;;5046464;28;20036;-67
2023/04/18 05:55:01;;;;;;;17.10;12.40;;;;;;;;;;5053407;28;20116;-67
2023/04/18 05:57:26;;;;;;;16.70;12.63;;;;;;;;;;5049490;28;20156;-68
2023/04/18 05:59:52;;;;;;;17.48;13.50;;;;;;;;;;5052901;28;20037;-67
2023/04/18 06:02:18;;;;;;;16.73;13.07;;;;;;;;;;5044772;28;20098;-67
2023/04/18 06:04:43;;;;;;;15.15;11.52;;;;;;;;;;5058712;28;20028;-67
2023/04/18 06:07:09;;;;;;;16.77;12.50;;;;;;;;;;5048358;28;20071;-68
2023/04/18 06:09:35;;;;;;;15.00;12.55;;;;;;;;;;5053471;28;20072;-67
2023/04/18 06:12:00;;;;;;;37.25;26.52;;;;;;;;;;5049818;28;20111;-67
2023/04/18 06:14:27;;;;;;;17.65;13.02;;;;;;;;;;5048658;28;20048;-67
2023/04/18 06:16:52;;;;;;;17.63;13.43;;;;;;;;;;5046067;28;20072;-67
2023/04/18 06:19:18;;;;;;;19.98;13.45;;;;;;;;;;5048718;28;20060;-67
2023/04/18 06:21:43;;;;;;;17.33;12.60;;;;;;;;;;5048659;28;20099;-67
2023/04/18 06:24:09;;;;;;;20.98;12.63;;;;;;;;;;5052229;28;20032;-67
2023/04/18 06:26:35;;;;;;;17.80;13.52;;;;;;;;;;5046289;28;20079;-67
2023/04/18 06:29:00;;;;;;;17.42;13.10;;;;;;;;;;5048800;28;20439;-67
2023/04/18 06:31:26;;;;;;;16.77;12.40;;;;;;;;;;5050074;28;20468;-67
2023/04/18 06:33:52;;;;;;;14.75;10.90;;;;;;;;;;5046774;28;20243;-67
2023/04/18 06:36:18;;;;;;;16.40;12.30;;;;;;;;;;5051417;28;20067;-67
2023/04/18 06:38:44;;;;;;;15.25;12.20;;;;;;;;;;5049624;28;20424;-67
2023/04/18 06:41:09;;;;;;;16.50;11.68;;;;;;;;;;5047805;28;20488;-68
2023/04/18 06:43:35;;;;;;;20.70;12.25;;;;;;;;;;5047878;28;20067;-67
2023/04/18 06:46:03;;;;;;;14.23;11.13;;;;;;;;;;5050394;28;20033;-67
2023/04/18 06:48:28;;;;;;;17.08;12.55;;;;;;;;;;5050849;28;20036;-69
2023/04/18 06:50:54;;;;;;;18.55;12.68;;;;;;;;;;5048747;28;20107;-68
2023/04/18 06:53:19;;;;;;;17.20;12.40;;;;;;;;;;5053903;28;20037;-68
2023/04/18 06:55:45;;;;;;;17.77;12.10;;;;;;;;;;5032915;28;20035;-68
2023/04/18 06:58:12;;;;;;;14.65;11.32;;;;;;;;;;5045251;28;20547;-68
2023/04/18 07:00:38;;;;;;;15.88;12.23;;;;;;;;;;5050923;28;20460;-68
2023/04/18 07:03:08;;;;;;;16.15;12.43;;;;;;;;;;5050480;28;20032;-68
2023/04/18 07:05:38;;;;;;;19.67;12.10;;;;;;;;;;5048623;28;20078;-67
2023/04/18 07:08:04;;;;;;;15.80;11.70;;;;;;;;;;5042832;28;20040;-68
2023/04/18 07:10:30;;;;;;;16.90;12.27;;;;;;;;;;5049112;28;20037;-68
2023/04/18 07:12:56;;;;;;;15.00;11.82;;;;;;;;;;5049828;28;20511;-68
2023/04/18 07:15:21;;;;;;;18.10;12.57;;;;;;;;;;5048657;28;20373;-68
2023/04/18 07:17:47;;;;;;;16.70;12.75;;;;;;;;;;5046094;28;20120;-68
2023/04/18 07:20:13;;;;;;;16.17;11.80;;;;;;;;;;5050963;28;20044;-67
2023/04/18 07:22:39;;;;;;;16.45;11.35;;;;;;;;;;5047307;28;20492;-68
2023/04/18 07:25:06;;;;;;;16.98;11.50;;;;;;;;;;5044621;28;20081;-67
2023/04/18 07:27:34;;;;;;;15.38;11.85;;;;;;;;;;5045119;28;20032;-68
2023/04/18 07:30:00;;;;;;;18.70;11.90;;;;;;;;;;5046618;28;20033;-68
2023/04/18 07:32:25;;;;;;;15.00;11.68;;;;;;;;;;5045077;28;20051;-68
2023/04/18 07:34:51;;;;;;;16.73;11.98;;;;;;;;;;5048926;28;20123;-68
2023/04/18 07:37:17;;;;;;;17.02;11.25;;;;;;;;;;5049321;28;20208;-68
2023/04/18 07:39:43;;;;;;;17.85;11.32;;;;;;;;;;5049834;28;20313;-69
2023/04/18 07:42:10;;;;;;;16.48;12.18;;;;;;;;;;5043894;28;20033;-68
2023/04/18 07:44:35;;;;;;;16.42;11.90;;;;;;;;;;5046969;28;20520;-68
2023/04/18 07:47:02;;;;;;;20.55;11.05;;;;;;;;;;5050848;28;20302;-68
2023/04/18 07:49:28;;;;;;;16.15;11.88;;;;;;;;;;5046685;28;20036;-68
2023/04/18 07:51:55;;;;;;;17.05;12.50;;;;;;;;;;5031587;28;20036;-68
2023/04/18 07:54:21;;;;;;;20.38;12.38;;;;;;;;;;5047713;28;20363;-68
2023/04/18 07:56:46;;;;;;;14.45;11.35;;;;;;;;;;5048204;28;20040;-67
2023/04/18 07:59:12;;;;;;;16.02;11.48;;;;;;;;;;5043510;28;20394;-67
2023/04/18 08:01:37;;;;;;;17.52;12.55;;;;;;;;;;5043218;28;20349;-68
2023/04/18 08:04:03;;;;;;;17.67;12.38;;;;;;;;;;5049236;28;20102;-68
2023/04/18 08:06:28;;;;;;;14.23;11.45;;;;;;;;;;5046614;28;20032;-68
2023/04/18 08:08:54;;;;;;;16.38;11.88;;;;;;;;;;5044919;28;20043;-68
2023/04/18 08:11:20;;;;;;;16.13;12.70;;;;;;;;;;5046838;28;20025;-68
2023/04/18 08:13:45;;;;;;;17.35;11.30;;;;;;;;;;5048727;28;20037;-68
2023/04/18 08:16:11;;;;;;;15.95;11.63;;;;;;;;;;5048684;28;20025;-68
2023/04/18 08:18:36;;;;;;;14.82;11.55;;;;;;;;;;5054963;28;20031;-68
2023/04/18 08:21:02;;;;;;;16.60;12.02;;;;;;;;;;5041737;28;20408;-68
2023/04/18 08:23:28;;;;;;;15.60;12.00;;;;;;;;;;5048621;28;20033;-68
2023/04/18 08:25:53;;;;;;;15.25;11.07;;;;;;;;;;5047341;28;20029;-68
2023/04/18 08:28:19;;;;;;;15.75;11.85;;;;;;;;;;5044762;28;20048;-68
2023/04/18 08:30:47;;;;;;;15.57;11.75;;;;;;;;;;5046889;28;20091;-68
2023/04/18 08:33:14;;;;;;;;;;;;;;;;;;5042397;28;20064;-68
2023/04/18 08:35:39;;;;;;;14.02;11.10;;;;;;;;;;5044232;28;19939;-68
2023/04/18 08:38:05;;;;;;;13.80;11.55;;;;;;;;;;5043185;28;20029;-68
2023/04/18 08:40:31;;;;;;;16.00;11.90;;;;;;;;;;5045990;28;20029;-68
2023/04/18 08:42:58;;;;;;;15.90;10.88;;;;;;;;;;5041586;28;20040;-68
2023/04/18 08:45:23;;;;;;;13.77;11.38;;;;;;;;;;5040755;28;20051;-67
2023/04/18 08:47:49;;;;;;;13.80;11.10;;;;;;;;;;5032635;28;20469;-68
2023/04/18 08:50:16;;;;;;;14.98;11.75;;;;;;;;;;5050115;28;20102;-68
2023/04/18 08:52:46;;;;;;;17.85;12.90;;;;;;;;;;5048203;28;20033;-68
2023/04/18 08:55:12;;;;;;;16.00;12.77;;;;;;;;;;5051844;28;20032;-68
2023/04/18 08:57:38;;;;;;;13.65;11.10;;;;;;;;;;5044753;28;20032;-68
2023/04/18 09:00:08;;;;;;;14.73;12.40;;;;;;;;;;5051354;28;20297;-68
2023/04/18 09:02:40;;;;;;;15.60;12.07;;;;;;;;;;5050230;28;20379;-67
2023/04/18 09:05:15;;;;;;;14.73;11.95;;;;;;;;;;5046473;28;20434;-67
2023/04/18 09:07:41;;;;;;;14.43;11.65;;;;;;;;;;5044068;28;20516;-68
2023/04/18 09:10:07;;;;;;;34.05;18.67;;;;;;;;;;5052103;28;20124;-68
2023/04/18 09:12:41;;;;;;;19.42;13.30;;;;;;;;;;5046953;28;20117;-68
2023/04/18 09:15:12;;;;;;;32.13;26.27;;;;;;;;;;5038770;28;20056;-68
2023/04/18 09:17:44;;;;;;;15.85;12.60;;;;;;;;;;5047547;28;20040;-68
2023/04/18 09:20:11;;;;;;;17.05;12.40;;;;;;;;;;5049529;28;20124;-68
2023/04/18 09:22:47;;;;;;;17.27;13.10;;;;;;;;;;5047314;28;20476;-68
2023/04/18 09:25:36;;;;;;;16.23;12.40;;;;;;;;;;5050789;28;20035;-68
2023/04/18 09:28:04;;;;;;;15.95;12.30;;;;;;;;;;5049366;28;20441;-67
2023/04/18 09:30:40;;;;;;;20.92;15.98;;;;;;;;;;5042602;28;20021;-68
2023/04/18 09:33:09;;;;;;;17.27;13.65;;;;;;;;;;5049562;28;20057;-67
2023/04/18 09:35:35;;;;;;;19.05;14.07;;;;;;;;;;5051907;28;20154;-67
2023/04/18 09:38:02;;;;;;;16.45;13.15;;;;;;;;;;5045585;28;20029;-66
2023/04/18 09:40:27;;;;;;;15.10;12.02;;;;;;;;;;5040891;28;20028;-68
2023/04/18 09:42:53;;;;;;;16.33;14.00;;;;;;;;;;5043941;28;20028;-68
2023/04/18 09:45:19;;;;;;;14.45;12.57;;;;;;;;;;5050125;28;20028;-68
2023/04/18 09:47:45;;;;;;;16.88;13.50;;;;;;;;;;5048721;28;20032;-68
2023/04/18 09:50:10;;;;;;;16.15;13.52;;;;;;;;;;5048659;28;20159;-68
2023/04/18 09:52:40;;;;;;;15.38;12.65;;;;;;;;;;5048180;28;20063;-68
2023/04/18 09:55:08;;;;;;;13.52;11.88;;;;;;;;;;5049282;28;20037;-68
2023/04/18 09:57:35;;;;;;;12.93;11.52;;;;;;;;;;5048349;28;20036;-68
2023/04/18 10:00:01;;;;;;;16.85;15.15;;;;;;;;;;5053818;28;20038;-68
2023/04/18 10:02:31;;;;;;;14.02;12.10;;;;;;;;;;5051995;28;20032;-68
2023/04/18 10:04:58;;;;;;;19.50;16.75;;;;;;;;;;5047647;28;20035;-67
2023/04/18 10:07:25;;;;;;;17.40;15.10;;;;;;;;;;5049053;28;20033;-67
2023/04/18 10:09:51;;;;;;;16.13;12.88;;;;;;;;;;5048816;28;20033;-68
2023/04/18 10:12:17;;;;;;;14.20;11.95;;;;;;;;;;5047092;28;20044;-68
2023/04/18 10:14:43;;;;;;;14.30;11.32;;;;;;;;;;5052380;28;20029;-68
2023/04/18 10:17:09;;;;;;;20.05;14.93;;;;;;;;;;5048458;28;20029;-68
2023/04/18 10:19:37;;;;;;;15.88;10.98;;;;;;;;;;5043254;28;20068;-68
2023/04/18 10:22:02;;;;;;;15.85;11.73;;;;;;;;;;5049628;28;20102;-68
2023/04/18 10:24:53;;;;;;;11.77;10.05;;;;;;;;;;5048810;28;20029;-68
2023/04/18 10:27:47;;;;;;;11.13;9.77;;;;;;;;;;5051665;28;20132;-67
2023/04/18 10:30:17;;;;;;;12.18;10.68;;;;;;;;;;5004619;28;20160;-68
2023/04/18 10:32:44;;;;;;;;;;;;;;;;;;5047458;28;20481;-68
2023/04/18 10:35:10;;;;;;;13.43;11.10;;;;;;;;;;5046032;28;19919;-68
2023/04/18 10:37:51;;;;;;;11.05;9.85;;;;;;;;;;5046106;28;20037;-67
2023/04/18 10:40:31;;;;;;;10.80;9.63;;;;;;;;;;5048006;28;20075;-68
2023/04/18 10:42:57;;;;;;;12.75;9.35;;;;;;;;;;5040890;28;20033;-68
2023/04/18 10:45:29;;;;;;;11.68;9.45;;;;;;;;;;5048297;28;20057;-68
2023/04/18 10:48:20;;;;;;;11.38;10.15;;;;;;;;;;5050134;28;20559;-68
2023/04/18 10:51:12;;;;;;;11.45;9.90;;;;;;;;;;5050236;28;20245;-68
2023/04/18 10:53:37;;;;;;;10.65;9.55;;;;;;;;;;5052349;28;20443;-68
2023/04/18 10:56:04;;;;;;;10.85;9.68;;;;;;;;;;5045031;28;20029;-68
2023/04/18 10:58:31;;;;;;;11.77;9.27;;;;;;;;;;5047304;28;20542;-68
2023/04/18 11:00:57;;;;;;;11.43;9.73;;;;;;;;;;5048830;28;20090;-68
2023/04/18 11:03:33;;;;;;;10.57;9.45;;;;;;;;;;5044531;28;20104;-68
2023/04/18 11:06:01;;;;;;;10.90;9.65;;;;;;;;;;5030949;28;20040;-68
2023/04/18 11:08:26;;;;;;;9.55;8.55;;;;;;;;;;5049717;28;20120;-67
2023/04/18 11:11:02;;;;;;;10.80;9.75;;;;;;;;;;5046870;28;20103;-67
2023/04/18 11:13:27;;;;;;;9.90;8.90;;;;;;;;;;5047162;28;20058;-68
2023/04/18 11:15:53;;;;;;;9.18;8.00;;;;;;;;;;5050545;28;20033;-68
2023/04/18 11:18:19;;;;;;;9.23;8.32;;;;;;;;;;5048666;28;20036;-68
2023/04/18 11:20:48;;;;;;;9.20;8.30;;;;;;;;;;5030130;28;20029;-67
2023/04/18 11:23:19;;;;;;;;;;;;;;;;;;5049320;28;20484;-67
2023/04/18 11:25:45;;;;;;;8.43;7.63;;;;;;;;;;5051049;28;19962;-68
2023/04/18 11:28:15;;;;;;;10.40;8.10;;;;;;;;;;5043810;28;20029;-67
2023/04/18 11:30:41;;;;;;;10.18;8.18;;;;;;;;;;5043990;28;20028;-67
2023/04/18 11:33:11;;;;;;;9.02;8.13;;;;;;;;;;5049309;28;20041;-67
2023/04/18 11:35:41;;;;;;;8.35;7.45;;;;;;;;;;5045742;28;20107;-67
2023/04/18 11:38:07;;;;;;;14.73;12.63;;;;;;;;;;5031798;28;20459;-67
2023/04/18 11:40:34;;;;;;;20.00;17.05;;;;;;;;;;5045063;28;20029;-67
2023/04/18 11:43:01;;;;;;;9.15;7.65;;;;;;;;;;5044960;28;20037;-67
2023/04/18 11:45:27;;;;;;;11.82;7.20;;;;;;;;;;5048120;28;20464;-66
2023/04/18 11:47:57;;;;;;;8.07;7.32;;;;;;;;;;5038516;28;20040;-68
2023/04/18 11:50:24;;;;;;;9.15;8.13;;;;;;;;;;5039370;28;20063;-68
2023/04/18 11:52:51;;;;;;;8.30;7.45;;;;;;;;;;5044422;28;20061;-68
2023/04/18 11:55:23;;;;;;;10.85;8.02;;;;;;;;;;5045941;28;20048;-68
2023/04/18 11:58:00;;;;;;;10.77;8.20;;;;;;;;;;5044275;28;20041;-68
2023/04/18 12:00:43;;;;;;;9.95;8.35;;;;;;;;;;5042141;28;20037;-68
2023/04/18 12:03:17;;;;;;;10.13;9.13;;;;;;;;;;5026185;28;20519;-68
2023/04/18 12:05:43;;;;;;;10.07;8.25;;;;;;;;;;5047546;28;20061;-67
2023/04/18 12:08:30;;;;;;;10.65;8.75;;;;;;;;;;5044832;28;20467;-68
2023/04/18 12:10:56;;;;;;;9.18;7.72;;;;;;;;;;5041164;28;20025;-68
2023/04/18 12:13:29;;;;;;;8.98;8.07;;;;;;;;;;5045189;28;20051;-68
2023/04/18 12:15:55;;;;;;;9.25;8.05;;;;;;;;;;5040504;28;20041;-68
2023/04/18 12:18:23;;;;;;;9.07;7.93;;;;;;;;;;5037935;28;20443;-68
2023/04/18 12:20:54;;;;;;;9.40;7.68;;;;;;;;;;5040079;28;20424;-68
2023/04/18 12:23:37;;;;;;;8.82;7.65;;;;;;;;;;5041111;28;20036;-68
2023/04/18 12:26:03;;;;;;;9.15;7.80;;;;;;;;;;5041162;28;20040;-68
2023/04/18 12:28:30;;;;;;;9.02;7.57;;;;;;;;;;5038185;28;20040;-68
2023/04/18 12:30:56;;;;;;;7.90;7.10;;;;;;;;;;5042819;28;20644;-68
2023/04/18 12:33:22;;;;;;;8.30;7.50;;;;;;;;;;5040962;28;20065;-68
2023/04/18 12:35:47;;;;;;;10.07;7.90;;;;;;;;;;5037777;28;20041;-68
2023/04/18 12:38:13;;;;;;;10.07;8.10;;;;;;;;;;5037028;28;20717;-68
2023/04/18 12:40:39;;;;;;;7.70;7.00;;;;;;;;;;5047145;28;20485;-68
2023/04/18 12:43:06;;;;;;;8.10;7.30;;;;;;;;;;5045980;28;20032;-68
2023/04/18 12:45:32;;;;;;;7.93;7.13;;;;;;;;;;5038089;28;20060;-68
2023/04/18 12:48:01;;;;;;;7.47;6.55;;;;;;;;;;5037149;28;20117;-68
2023/04/18 12:50:27;;;;;;;7.85;7.10;;;;;;;;;;5039074;28;20025;-68
2023/04/18 12:52:56;;;;;;;8.10;7.30;;;;;;;;;;5039131;28;20059;-68
2023/04/18 12:55:21;;;;;;;7.85;7.10;;;;;;;;;;5038101;28;20041;-68
2023/04/18 12:57:50;;;;;;;6.82;6.13;;;;;;;;;;5045059;28;20044;-68
2023/04/18 13:00:15;;;;;;;9.38;7.47;;;;;;;;;;5048149;28;20094;-68
2023/04/18 13:02:42;;;;;;;11.20;8.05;;;;;;;;;;5045116;28;20423;-68
2023/04/18 13:05:10;;;;;;;8.82;8.02;;;;;;;;;;5043427;28;20068;-68
2023/04/18 13:07:36;;;;;;;8.00;7.20;;;;;;;;;;5026996;28;20399;-68
2023/04/18 13:10:03;;;;;;;8.82;7.95;;;;;;;;;;5045191;28;20035;-68
2023/04/18 13:12:29;;;;;;;6.35;5.78;;;;;;;;;;5045410;28;20029;-68
2023/04/18 13:14:57;;;;;;;9.13;6.85;;;;;;;;;;5041832;28;20064;-68
2023/04/18 13:17:23;;;;;;;7.67;6.83;;;;;;;;;;5037720;28;20725;-68
2023/04/18 13:19:49;;;;;;;8.88;7.25;;;;;;;;;;5044329;28;20036;-68
2023/04/18 13:22:18;;;;;;;8.70;7.10;;;;;;;;;;5046743;28;20320;-68
2023/04/18 13:24:44;;;;;;;7.47;6.78;;;;;;;;;;5042699;28;20033;-68
2023/04/18 13:27:09;;;;;;;8.82;7.05;;;;;;;;;;5043596;28;20037;-68
2023/04/18 13:29:40;;;;;;;8.57;7.63;;;;;;;;;;5045783;28;20032;-68
2023/04/18 13:32:06;;;;;;;7.78;7.07;;;;;;;;;;5047162;28;20033;-68
2023/04/18 13:34:36;;;;;;;8.38;7.05;;;;;;;;;;5051539;28;20045;-68
2023/04/18 13:37:02;;;;;;;7.70;6.45;;;;;;;;;;5048818;28;20068;-67
2023/04/18 13:39:31;;;;;;;8.63;6.75;;;;;;;;;;5046334;28;20040;-67
2023/04/18 13:41:56;;;;;;;7.88;7.15;;;;;;;;;;5042697;28;20117;-67
2023/04/18 13:44:23;;;;;;;7.13;6.53;;;;;;;;;;5047271;28;20522;-67
2023/04/18 13:46:50;;;;;;;6.75;6.15;;;;;;;;;;5041360;28;20040;-68
2023/04/18 13:49:16;;;;;;;6.75;6.15;;;;;;;;;;5038580;28;20440;-67
2023/04/18 13:51:42;;;;;;;9.07;7.85;;;;;;;;;;5045330;28;20032;-67
2023/04/18 13:54:07;;;;;;;8.05;7.25;;;;;;;;;;5046804;28;20033;-67
2023/04/18 13:56:33;;;;;;;7.88;7.07;;;;;;;;;;5048320;28;20102;-68
2023/04/18 13:58:58;;;;;;;7.70;7.00;;;;;;;;;;5030621;28;20029;-67
2023/04/18 14:01:24;;;;;;;7.72;7.03;;;;;;;;;;5047225;28;20039;-67
2023/04/18 14:03:50;;;;;;;7.63;6.90;;;;;;;;;;5046589;28;20396;-67
2023/04/18 14:06:15;;;;;;;8.20;7.50;;;;;;;;;;5043219;28;20076;-68
2023/04/18 14:08:41;;;;;;;13.43;11.30;;;;;;;;;;5046067;28;20107;-68
2023/04/18 14:11:06;;;;;;;10.50;9.40;;;;;;;;;;5049060;28;20438;-68
2023/04/18 14:13:32;;;;;;;10.45;7.63;;;;;;;;;;5046900;28;20111;-68
2023/04/18 14:15:58;;;;;;;7.20;6.55;;;;;;;;;;5046436;28;20534;-68
2023/04/18 14:18:24;;;;;;;8.40;7.60;;;;;;;;;;5049196;28;20072;-68
2023/04/18 14:20:50;;;;;;;7.97;7.15;;;;;;;;;;5047815;28;20497;-68
2023/04/18 14:23:16;;;;;;;10.27;8.30;;;;;;;;;;5050085;28;20095;-68
2023/04/18 14:25:42;;;;;;;7.80;7.20;;;;;;;;;;5046407;28;20036;-68